sensor_id;sensor_type;location;lat;lon;timestamp;P1;durP1;ratioP1;P2;durP2;ratioP2
37451;SDS011;23314;51.114;6.900;2023-02-28T00:01:17;5.87;;;2.90;;
37451;SDS011;23314;51.114;6.900;2023-02-28T00:03:42;7.07;;;2.73;;
37451;SDS011;23314;51.114;6.900;2023-02-28T00:06:08;5.60;;;2.67;;
37451;SDS011;23314;51.114;6.900;2023-02-28T00:08:34;4.77;;;2.57;;
37451;SDS011;23314;51.114;6.900;2023-02-28T00:11:01;5.50;;;3.00;;
37451;SDS011;23314;51.114;6.900;2023-02-28T00:13:30;4.97;;;3.00;;
37451;SDS011;23314;51.114;6.900;2023-02-28T00:16:00;4.40;;;2.70;;
37451;SDS011;23314;51.114;6.900;2023-02-28T00:18:30;3.03;;;2.73;;
37451;SDS011;23314;51.114;6.900;2023-02-28T00:20:56;5.53;;;3.10;;
37451;SDS011;23314;51.114;6.900;2023-02-28T00:23:22;4.23;;;3.00;;
37451;SDS011;23314;51.114;6.900;2023-02-28T00:25:47;4.60;;;3.03;;
37451;SDS011;23314;51.114;6.900;2023-02-28T00:28:12;5.87;;;2.90;;
37451;SDS011;23314;51.114;6.900;2023-02-28T00:30:38;4.67;;;3.10;;
37451;SDS011;23314;51.114;6.900;2023-02-28T00:33:03;6.37;;;3.37;;
37451;SDS011;23314;51.114;6.900;2023-02-28T00:35:29;7.10;;;3.03;;
37451;SDS011;23314;51.114;6.900;2023-02-28T00:37:54;5.00;;;3.27;;
37451;SDS011;23314;51.114;6.900;2023-02-28T00:40:19;5.57;;;3.20;;
37451;SDS011;23314;51.114;6.900;2023-02-28T00:42:45;4.07;;;3.00;;
37451;SDS011;23314;51.114;6.900;2023-02-28T00:45:10;8.40;;;3.23;;
37451;SDS011;23314;51.114;6.900;2023-02-28T00:47:35;7.37;;;3.50;;
37451;SDS011;23314;51.114;6.900;2023-02-28T00:50:01;5.13;;;3.30;;
37451;SDS011;23314;51.114;6.900;2023-02-28T00:52:27;4.97;;;3.30;;
37451;SDS011;23314;51.114;6.900;2023-02-28T00:54:52;5.80;;;3.20;;
37451;SDS011;23314;51.114;6.900;2023-02-28T00:57:18;8.63;;;3.90;;
37451;SDS011;23314;51.114;6.900;2023-02-28T00:59:43;8.67;;;4.13;;
37451;SDS011;23314;51.114;6.900;2023-02-28T01:02:08;5.30;;;3.60;;
37451;SDS011;23314;51.114;6.900;2023-02-28T01:04:34;6.40;;;4.27;;
37451;SDS011;23314;51.114;6.900;2023-02-28T01:06:59;8.57;;;4.80;;
37451;SDS011;23314;51.114;6.900;2023-02-28T01:09:24;18.43;;;8.20;;
37451;SDS011;23314;51.114;6.900;2023-02-28T01:11:49;7.27;;;3.43;;
37451;SDS011;23314;51.114;6.900;2023-02-28T01:14:15;4.23;;;3.53;;
37451;SDS011;23314;51.114;6.900;2023-02-28T01:16:42;4.07;;;3.13;;
37451;SDS011;23314;51.114;6.900;2023-02-28T01:19:08;5.77;;;3.53;;
37451;SDS011;23314;51.114;6.900;2023-02-28T01:21:33;4.90;;;3.20;;
37451;SDS011;23314;51.114;6.900;2023-02-28T01:24:00;5.50;;;3.10;;
37451;SDS011;23314;51.114;6.900;2023-02-28T01:26:26;6.40;;;3.73;;
37451;SDS011;23314;51.114;6.900;2023-02-28T01:28:52;4.73;;;3.57;;
37451;SDS011;23314;51.114;6.900;2023-02-28T01:31:18;3.87;;;3.03;;
37451;SDS011;23314;51.114;6.900;2023-02-28T01:33:44;5.07;;;3.50;;
37451;SDS011;23314;51.114;6.900;2023-02-28T01:36:10;5.70;;;4.20;;
37451;SDS011;23314;51.114;6.900;2023-02-28T01:38:37;4.93;;;3.30;;
37451;SDS011;23314;51.114;6.900;2023-02-28T01:41:03;4.97;;;3.40;;
37451;SDS011;23314;51.114;6.900;2023-02-28T01:43:30;3.93;;;3.40;;
37451;SDS011;23314;51.114;6.900;2023-02-28T01:45:57;4.40;;;3.03;;
37451;SDS011;23314;51.114;6.900;2023-02-28T01:48:27;6.10;;;3.53;;
37451;SDS011;23314;51.114;6.900;2023-02-28T01:50:58;5.67;;;3.30;;
37451;SDS011;23314;51.114;6.900;2023-02-28T01:53:38;4.37;;;2.97;;
37451;SDS011;23314;51.114;6.900;2023-02-28T01:56:06;5.07;;;3.03;;
37451;SDS011;23314;51.114;6.900;2023-02-28T01:58:35;7.37;;;3.43;;
37451;SDS011;23314;51.114;6.900;2023-02-28T02:01:07;5.13;;;3.23;;
37451;SDS011;23314;51.114;6.900;2023-02-28T02:03:33;6.77;;;3.90;;
37451;SDS011;23314;51.114;6.900;2023-02-28T02:06:00;3.87;;;3.33;;
37451;SDS011;23314;51.114;6.900;2023-02-28T02:08:28;5.80;;;3.17;;
37451;SDS011;23314;51.114;6.900;2023-02-28T02:10:57;3.93;;;3.00;;
37451;SDS011;23314;51.114;6.900;2023-02-28T02:16:37;5.43;;;3.90;;
37451;SDS011;23314;51.114;6.900;2023-02-28T02:19:26;5.77;;;3.70;;
37451;SDS011;23314;51.114;6.900;2023-02-28T02:30:08;6.53;;;3.47;;
37451;SDS011;23314;51.114;6.900;2023-02-28T02:43:56;4.53;;;3.37;;
37451;SDS011;23314;51.114;6.900;2023-02-28T02:46:42;6.40;;;3.60;;
37451;SDS011;23314;51.114;6.900;2023-02-28T02:49:11;6.20;;;3.90;;
37451;SDS011;23314;51.114;6.900;2023-02-28T02:51:40;5.13;;;3.50;;
37451;SDS011;23314;51.114;6.900;2023-02-28T02:56:39;5.83;;;3.43;;
37451;SDS011;23314;51.114;6.900;2023-02-28T02:59:09;5.40;;;3.70;;
37451;SDS011;23314;51.114;6.900;2023-02-28T03:01:37;5.70;;;4.07;;
37451;SDS011;23314;51.114;6.900;2023-02-28T03:04:07;7.97;;;4.50;;
37451;SDS011;23314;51.114;6.900;2023-02-28T03:06:35;5.47;;;4.23;;
37451;SDS011;23314;51.114;6.900;2023-02-28T03:09:01;7.07;;;4.50;;
37451;SDS011;23314;51.114;6.900;2023-02-28T03:11:27;7.37;;;4.90;;
37451;SDS011;23314;51.114;6.900;2023-02-28T03:16:45;9.97;;;5.10;;
37451;SDS011;23314;51.114;6.900;2023-02-28T03:27:44;7.40;;;5.70;;
37451;SDS011;23314;51.114;6.900;2023-02-28T03:32:56;10.47;;;5.73;;
37451;SDS011;23314;51.114;6.900;2023-02-28T03:35:32;12.67;;;5.90;;
37451;SDS011;23314;51.114;6.900;2023-02-28T03:38:35;7.43;;;5.70;;
37451;SDS011;23314;51.114;6.900;2023-02-28T03:41:02;11.50;;;5.97;;
37451;SDS011;23314;51.114;6.900;2023-02-28T03:43:32;11.03;;;6.57;;
37451;SDS011;23314;51.114;6.900;2023-02-28T03:46:01;10.87;;;5.67;;
37451;SDS011;23314;51.114;6.900;2023-02-28T03:48:32;8.70;;;6.00;;
37451;SDS011;23314;51.114;6.900;2023-02-28T03:51:05;9.90;;;6.33;;
37451;SDS011;23314;51.114;6.900;2023-02-28T03:53:39;9.20;;;6.07;;
37451;SDS011;23314;51.114;6.900;2023-02-28T03:58:54;9.63;;;5.80;;
37451;SDS011;23314;51.114;6.900;2023-02-28T04:01:24;12.63;;;6.63;;
37451;SDS011;23314;51.114;6.900;2023-02-28T04:03:55;15.63;;;6.57;;
37451;SDS011;23314;51.114;6.900;2023-02-28T04:06:21;8.00;;;6.07;;
37451;SDS011;23314;51.114;6.900;2023-02-28T04:08:48;13.10;;;6.33;;
37451;SDS011;23314;51.114;6.900;2023-02-28T04:13:44;15.87;;;6.53;;
37451;SDS011;23314;51.114;6.900;2023-02-28T04:16:10;10.17;;;6.40;;
37451;SDS011;23314;51.114;6.900;2023-02-28T04:18:40;12.30;;;6.43;;
37451;SDS011;23314;51.114;6.900;2023-02-28T04:21:06;11.00;;;5.83;;
37451;SDS011;23314;51.114;6.900;2023-02-28T04:23:32;9.90;;;5.67;;
37451;SDS011;23314;51.114;6.900;2023-02-28T04:25:57;7.53;;;5.67;;
37451;SDS011;23314;51.114;6.900;2023-02-28T04:28:23;7.90;;;5.33;;
37451;SDS011;23314;51.114;6.900;2023-02-28T04:30:53;8.17;;;5.10;;
37451;SDS011;23314;51.114;6.900;2023-02-28T04:33:26;7.10;;;5.23;;
37451;SDS011;23314;51.114;6.900;2023-02-28T04:35:58;6.23;;;5.10;;
37451;SDS011;23314;51.114;6.900;2023-02-28T04:38:29;8.17;;;4.37;;
37451;SDS011;23314;51.114;6.900;2023-02-28T04:40:56;8.13;;;5.23;;
37451;SDS011;23314;51.114;6.900;2023-02-28T04:43:22;5.33;;;4.33;;
37451;SDS011;23314;51.114;6.900;2023-02-28T04:45:48;6.10;;;4.13;;
37451;SDS011;23314;51.114;6.900;2023-02-28T04:48:13;7.87;;;4.10;;
37451;SDS011;23314;51.114;6.900;2023-02-28T04:50:38;5.13;;;3.97;;
37451;SDS011;23314;51.114;6.900;2023-02-28T04:53:03;7.37;;;3.83;;
37451;SDS011;23314;51.114;6.900;2023-02-28T04:55:29;7.93;;;3.60;;
37451;SDS011;23314;51.114;6.900;2023-02-28T04:57:54;5.83;;;3.90;;
37451;SDS011;23314;51.114;6.900;2023-02-28T05:00:19;5.83;;;3.60;;
37451;SDS011;23314;51.114;6.900;2023-02-28T05:02:45;6.13;;;3.40;;
37451;SDS011;23314;51.114;6.900;2023-02-28T05:05:10;5.80;;;3.13;;
37451;SDS011;23314;51.114;6.900;2023-02-28T05:07:41;3.57;;;3.00;;
37451;SDS011;23314;51.114;6.900;2023-02-28T05:10:07;4.80;;;3.17;;
37451;SDS011;23314;51.114;6.900;2023-02-28T05:12:32;4.37;;;3.13;;
37451;SDS011;23314;51.114;6.900;2023-02-28T05:14:58;5.47;;;3.37;;
37451;SDS011;23314;51.114;6.900;2023-02-28T05:17:23;5.10;;;3.20;;
37451;SDS011;23314;51.114;6.900;2023-02-28T05:19:48;5.87;;;2.90;;
37451;SDS011;23314;51.114;6.900;2023-02-28T05:22:14;4.13;;;3.13;;
37451;SDS011;23314;51.114;6.900;2023-02-28T05:24:41;4.13;;;2.50;;
37451;SDS011;23314;51.114;6.900;2023-02-28T05:27:07;5.53;;;2.97;;
37451;SDS011;23314;51.114;6.900;2023-02-28T05:29:32;4.63;;;2.90;;
37451;SDS011;23314;51.114;6.900;2023-02-28T05:31:59;5.07;;;3.23;;
37451;SDS011;23314;51.114;6.900;2023-02-28T05:34:24;10.00;;;3.30;;
37451;SDS011;23314;51.114;6.900;2023-02-28T05:36:49;5.53;;;2.93;;
37451;SDS011;23314;51.114;6.900;2023-02-28T05:39:14;4.37;;;3.40;;
37451;SDS011;23314;51.114;6.900;2023-02-28T05:41:40;7.03;;;3.80;;
37451;SDS011;23314;51.114;6.900;2023-02-28T05:44:07;8.20;;;3.60;;
37451;SDS011;23314;51.114;6.900;2023-02-28T05:46:32;8.73;;;3.70;;
37451;SDS011;23314;51.114;6.900;2023-02-28T05:48:57;4.47;;;3.50;;
37451;SDS011;23314;51.114;6.900;2023-02-28T05:51:25;5.00;;;3.13;;
37451;SDS011;23314;51.114;6.900;2023-02-28T05:53:50;4.90;;;3.20;;
37451;SDS011;23314;51.114;6.900;2023-02-28T05:56:16;6.80;;;3.53;;
37451;SDS011;23314;51.114;6.900;2023-02-28T05:58:41;6.93;;;3.50;;
37451;SDS011;23314;51.114;6.900;2023-02-28T06:04:02;5.13;;;2.97;;
37451;SDS011;23314;51.114;6.900;2023-02-28T06:06:29;6.73;;;3.37;;
37451;SDS011;23314;51.114;6.900;2023-02-28T06:08:55;2.80;;;2.60;;
37451;SDS011;23314;51.114;6.900;2023-02-28T06:11:21;4.43;;;2.90;;
37451;SDS011;23314;51.114;6.900;2023-02-28T06:13:47;5.13;;;3.00;;
37451;SDS011;23314;51.114;6.900;2023-02-28T06:16:12;6.07;;;2.73;;
37451;SDS011;23314;51.114;6.900;2023-02-28T06:18:38;3.83;;;3.00;;
37451;SDS011;23314;51.114;6.900;2023-02-28T06:21:03;5.82;;;3.38;;
37451;SDS011;23314;51.114;6.900;2023-02-28T06:23:29;4.60;;;3.40;;
37451;SDS011;23314;51.114;6.900;2023-02-28T06:25:54;3.47;;;3.00;;
37451;SDS011;23314;51.114;6.900;2023-02-28T06:28:23;6.35;;;3.38;;
37451;SDS011;23314;51.114;6.900;2023-02-28T06:30:49;6.53;;;3.33;;
37451;SDS011;23314;51.114;6.900;2023-02-28T06:33:14;4.07;;;3.07;;
37451;SDS011;23314;51.114;6.900;2023-02-28T06:35:39;5.07;;;3.50;;
37451;SDS011;23314;51.114;6.900;2023-02-28T06:38:08;5.15;;;3.42;;
37451;SDS011;23314;51.114;6.900;2023-02-28T06:40:34;6.73;;;3.57;;
37451;SDS011;23314;51.114;6.900;2023-02-28T06:43:00;5.10;;;3.30;;
37451;SDS011;23314;51.114;6.900;2023-02-28T06:45:26;6.77;;;3.27;;
37451;SDS011;23314;51.114;6.900;2023-02-28T06:47:51;5.55;;;3.15;;
37451;SDS011;23314;51.114;6.900;2023-02-28T06:50:17;5.27;;;3.10;;
37451;SDS011;23314;51.114;6.900;2023-02-28T06:52:44;4.03;;;3.10;;
37451;SDS011;23314;51.114;6.900;2023-02-28T06:55:10;5.70;;;3.33;;
37451;SDS011;23314;51.114;6.900;2023-02-28T06:57:35;7.50;;;4.10;;
37451;SDS011;23314;51.114;6.900;2023-02-28T07:00:02;5.00;;;3.47;;
37451;SDS011;23314;51.114;6.900;2023-02-28T07:02:32;6.55;;;3.38;;
37451;SDS011;23314;51.114;6.900;2023-02-28T07:04:58;4.57;;;3.40;;
37451;SDS011;23314;51.114;6.900;2023-02-28T07:07:23;6.73;;;3.70;;
37451;SDS011;23314;51.114;6.900;2023-02-28T07:09:49;4.17;;;3.00;;
37451;SDS011;23314;51.114;6.900;2023-02-28T07:12:14;4.00;;;3.00;;
37451;SDS011;23314;51.114;6.900;2023-02-28T07:14:39;4.07;;;3.67;;
37451;SDS011;23314;51.114;6.900;2023-02-28T07:17:06;5.10;;;2.90;;
37451;SDS011;23314;51.114;6.900;2023-02-28T07:19:32;7.23;;;3.17;;
37451;SDS011;23314;51.114;6.900;2023-02-28T07:21:58;4.77;;;3.13;;
37451;SDS011;23314;51.114;6.900;2023-02-28T07:24:23;5.30;;;3.50;;
37451;SDS011;23314;51.114;6.900;2023-02-28T07:26:50;4.77;;;3.03;;
37451;SDS011;23314;51.114;6.900;2023-02-28T07:29:16;4.00;;;3.13;;
37451;SDS011;23314;51.114;6.900;2023-02-28T07:31:41;3.43;;;3.13;;
37451;SDS011;23314;51.114;6.900;2023-02-28T07:34:06;6.20;;;3.20;;
37451;SDS011;23314;51.114;6.900;2023-02-28T07:36:32;5.73;;;3.47;;
37451;SDS011;23314;51.114;6.900;2023-02-28T07:38:57;5.97;;;3.20;;
37451;SDS011;23314;51.114;6.900;2023-02-28T07:41:23;3.17;;;2.97;;
37451;SDS011;23314;51.114;6.900;2023-02-28T07:43:56;3.03;;;2.73;;
37451;SDS011;23314;51.114;6.900;2023-02-28T07:46:24;5.30;;;2.37;;
37451;SDS011;23314;51.114;6.900;2023-02-28T07:48:50;5.90;;;2.80;;
37451;SDS011;23314;51.114;6.900;2023-02-28T07:51:15;5.97;;;2.73;;
37451;SDS011;23314;51.114;6.900;2023-02-28T07:53:41;7.03;;;2.77;;
37451;SDS011;23314;51.114;6.900;2023-02-28T07:56:06;2.67;;;2.37;;
37451;SDS011;23314;51.114;6.900;2023-02-28T07:58:32;2.07;;;1.97;;
37451;SDS011;23314;51.114;6.900;2023-02-28T08:00:57;2.77;;;2.53;;
37451;SDS011;23314;51.114;6.900;2023-02-28T08:03:30;5.17;;;2.73;;
37451;SDS011;23314;51.114;6.900;2023-02-28T08:05:55;2.60;;;2.20;;
37451;SDS011;23314;51.114;6.900;2023-02-28T08:08:20;2.73;;;2.20;;
37451;SDS011;23314;51.114;6.900;2023-02-28T08:10:46;3.93;;;2.30;;
37451;SDS011;23314;51.114;6.900;2023-02-28T08:13:11;2.47;;;2.27;;
37451;SDS011;23314;51.114;6.900;2023-02-28T08:15:37;2.73;;;1.93;;
37451;SDS011;23314;51.114;6.900;2023-02-28T08:18:02;2.77;;;1.97;;
37451;SDS011;23314;51.114;6.900;2023-02-28T08:20:27;3.00;;;2.20;;
37451;SDS011;23314;51.114;6.900;2023-02-28T08:22:53;2.57;;;2.33;;
37451;SDS011;23314;51.114;6.900;2023-02-28T08:25:18;2.73;;;2.13;;
37451;SDS011;23314;51.114;6.900;2023-02-28T08:27:44;2.30;;;2.10;;
37451;SDS011;23314;51.114;6.900;2023-02-28T08:30:10;2.03;;;1.93;;
37451;SDS011;23314;51.114;6.900;2023-02-28T08:32:38;4.13;;;2.23;;
37451;SDS011;23314;51.114;6.900;2023-02-28T08:35:04;2.67;;;2.00;;
37451;SDS011;23314;51.114;6.900;2023-02-28T08:37:30;2.87;;;1.97;;
37451;SDS011;23314;51.114;6.900;2023-02-28T08:39:55;2.00;;;1.80;;
37451;SDS011;23314;51.114;6.900;2023-02-28T08:42:20;2.30;;;1.90;;
37451;SDS011;23314;51.114;6.900;2023-02-28T08:44:45;1.77;;;1.57;;
37451;SDS011;23314;51.114;6.900;2023-02-28T08:47:11;2.33;;;2.13;;
37451;SDS011;23314;51.114;6.900;2023-02-28T08:49:36;2.40;;;1.90;;
37451;SDS011;23314;51.114;6.900;2023-02-28T08:52:02;2.00;;;1.70;;
37451;SDS011;23314;51.114;6.900;2023-02-28T08:54:28;1.70;;;1.50;;
37451;SDS011;23314;51.114;6.900;2023-02-28T08:56:55;1.95;;;1.85;;
37451;SDS011;23314;51.114;6.900;2023-02-28T08:59:21;2.20;;;2.00;;
37451;SDS011;23314;51.114;6.900;2023-02-28T09:01:46;4.23;;;2.20;;
37451;SDS011;23314;51.114;6.900;2023-02-28T09:04:11;2.15;;;1.95;;
37451;SDS011;23314;51.114;6.900;2023-02-28T09:06:37;1.90;;;1.80;;
37451;SDS011;23314;51.114;6.900;2023-02-28T09:09:03;1.67;;;1.57;;
37451;SDS011;23314;51.114;6.900;2023-02-28T09:11:31;2.23;;;1.80;;
37451;SDS011;23314;51.114;6.900;2023-02-28T09:13:57;2.05;;;1.85;;
37451;SDS011;23314;51.114;6.900;2023-02-28T09:16:24;3.73;;;1.83;;
37451;SDS011;23314;51.114;6.900;2023-02-28T09:18:49;2.00;;;1.90;;
37451;SDS011;23314;51.114;6.900;2023-02-28T09:21:16;3.67;;;1.80;;
37451;SDS011;23314;51.114;6.900;2023-02-28T09:23:43;2.85;;;1.90;;
37451;SDS011;23314;51.114;6.900;2023-02-28T09:26:14;2.00;;;1.80;;
37451;SDS011;23314;51.114;6.900;2023-02-28T09:28:50;1.63;;;1.50;;
37451;SDS011;23314;51.114;6.900;2023-02-28T09:31:18;2.73;;;1.70;;
37451;SDS011;23314;51.114;6.900;2023-02-28T09:33:52;2.03;;;1.43;;
37451;SDS011;23314;51.114;6.900;2023-02-28T09:36:19;3.70;;;1.70;;
37451;SDS011;23314;51.114;6.900;2023-02-28T09:38:45;1.80;;;1.63;;
37451;SDS011;23314;51.114;6.900;2023-02-28T09:41:15;1.67;;;1.57;;
37451;SDS011;23314;51.114;6.900;2023-02-28T09:43:45;1.73;;;1.63;;
37451;SDS011;23314;51.114;6.900;2023-02-28T09:46:18;3.53;;;1.80;;
37451;SDS011;23314;51.114;6.900;2023-02-28T09:49:07;1.90;;;1.70;;
37451;SDS011;23314;51.114;6.900;2023-02-28T09:51:51;1.60;;;1.50;;
37451;SDS011;23314;51.114;6.900;2023-02-28T09:54:19;3.40;;;2.03;;
37451;SDS011;23314;51.114;6.900;2023-02-28T09:57:01;1.77;;;1.67;;
37451;SDS011;23314;51.114;6.900;2023-02-28T10:05:14;2.77;;;2.17;;
37451;SDS011;23314;51.114;6.900;2023-02-28T10:08:01;4.03;;;1.90;;
37451;SDS011;23314;51.114;6.900;2023-02-28T10:10:49;3.80;;;2.00;;
37451;SDS011;23314;51.114;6.900;2023-02-28T10:13:27;4.20;;;1.80;;
37451;SDS011;23314;51.114;6.900;2023-02-28T10:19:34;5.07;;;2.03;;
37451;SDS011;23314;51.114;6.900;2023-02-28T10:22:08;1.80;;;1.70;;
37451;SDS011;23314;51.114;6.900;2023-02-28T10:24:42;2.20;;;1.87;;
37451;SDS011;23314;51.114;6.900;2023-02-28T10:27:17;3.43;;;1.90;;
37451;SDS011;23314;51.114;6.900;2023-02-28T10:29:47;1.70;;;1.60;;
37451;SDS011;23314;51.114;6.900;2023-02-28T10:32:18;7.67;;;2.40;;
37451;SDS011;23314;51.114;6.900;2023-02-28T10:34:52;5.03;;;2.10;;
37451;SDS011;23314;51.114;6.900;2023-02-28T10:37:21;2.20;;;2.00;;
37451;SDS011;23314;51.114;6.900;2023-02-28T10:39:47;2.90;;;2.17;;
37451;SDS011;23314;51.114;6.900;2023-02-28T10:42:18;3.90;;;1.90;;
37451;SDS011;23314;51.114;6.900;2023-02-28T10:44:46;2.43;;;2.00;;
37451;SDS011;23314;51.114;6.900;2023-02-28T10:47:16;4.53;;;2.10;;
37451;SDS011;23314;51.114;6.900;2023-02-28T10:49:48;3.03;;;2.27;;
37451;SDS011;23314;51.114;6.900;2023-02-28T10:52:32;2.90;;;1.90;;
37451;SDS011;23314;51.114;6.900;2023-02-28T10:55:13;2.10;;;1.90;;
37451;SDS011;23314;51.114;6.900;2023-02-28T10:57:41;18.43;;;3.60;;
37451;SDS011;23314;51.114;6.900;2023-02-28T11:00:13;3.40;;;1.77;;
37451;SDS011;23314;51.114;6.900;2023-02-28T11:02:41;3.17;;;2.10;;
37451;SDS011;23314;51.114;6.900;2023-02-28T11:07:56;2.00;;;1.90;;
37451;SDS011;23314;51.114;6.900;2023-02-28T11:10:32;2.00;;;1.90;;
37451;SDS011;23314;51.114;6.900;2023-02-28T11:13:00;2.03;;;1.83;;
37451;SDS011;23314;51.114;6.900;2023-02-28T11:15:27;2.27;;;1.70;;
37451;SDS011;23314;51.114;6.900;2023-02-28T11:20:23;2.40;;;2.20;;
37451;SDS011;23314;51.114;6.900;2023-02-28T11:22:50;3.30;;;2.30;;
37451;SDS011;23314;51.114;6.900;2023-02-28T11:25:19;6.97;;;1.80;;
37451;SDS011;23314;51.114;6.900;2023-02-28T11:27:52;2.50;;;2.23;;
37451;SDS011;23314;51.114;6.900;2023-02-28T11:30:23;3.23;;;2.13;;
37451;SDS011;23314;51.114;6.900;2023-02-28T11:32:49;2.37;;;1.90;;
37451;SDS011;23314;51.114;6.900;2023-02-28T11:35:19;2.23;;;2.00;;
37451;SDS011;23314;51.114;6.900;2023-02-28T11:37:49;2.10;;;2.00;;
37451;SDS011;23314;51.114;6.900;2023-02-28T11:40:18;3.37;;;2.20;;
37451;SDS011;23314;51.114;6.900;2023-02-28T11:43:03;2.23;;;2.00;;
37451;SDS011;23314;51.114;6.900;2023-02-28T11:45:43;3.00;;;2.30;;
37451;SDS011;23314;51.114;6.900;2023-02-28T11:48:27;2.93;;;2.00;;
37451;SDS011;23314;51.114;6.900;2023-02-28T11:51:02;2.57;;;1.93;;
37451;SDS011;23314;51.114;6.900;2023-02-28T11:53:42;3.17;;;2.30;;
37451;SDS011;23314;51.114;6.900;2023-02-28T11:56:22;4.23;;;2.40;;
37451;SDS011;23314;51.114;6.900;2023-02-28T12:13:08;3.67;;;1.80;;
37451;SDS011;23314;51.114;6.900;2023-02-28T12:15:51;2.53;;;2.20;;
37451;SDS011;23314;51.114;6.900;2023-02-28T12:18:30;2.30;;;2.10;;
37451;SDS011;23314;51.114;6.900;2023-02-28T12:21:10;4.43;;;2.47;;
37451;SDS011;23314;51.114;6.900;2023-02-28T12:26:39;2.57;;;2.37;;
37451;SDS011;23314;51.114;6.900;2023-02-28T12:29:12;3.30;;;2.43;;
37451;SDS011;23314;51.114;6.900;2023-02-28T12:31:47;2.30;;;2.10;;
37451;SDS011;23314;51.114;6.900;2023-02-28T12:34:18;8.10;;;2.97;;
37451;SDS011;23314;51.114;6.900;2023-02-28T12:36:46;2.70;;;2.50;;
37451;SDS011;23314;51.114;6.900;2023-02-28T12:39:18;3.63;;;2.40;;
37451;SDS011;23314;51.114;6.900;2023-02-28T12:46:59;2.17;;;1.97;;
37451;SDS011;23314;51.114;6.900;2023-02-28T12:49:29;10.13;;;2.53;;
37451;SDS011;23314;51.114;6.900;2023-02-28T12:51:57;3.13;;;2.00;;
37451;SDS011;23314;51.114;6.900;2023-02-28T12:54:28;2.20;;;2.10;;
37451;SDS011;23314;51.114;6.900;2023-02-28T12:59:41;2.57;;;2.27;;
37451;SDS011;23314;51.114;6.900;2023-02-28T13:14:16;2.87;;;2.10;;
37451;SDS011;23314;51.114;6.900;2023-02-28T13:16:55;4.70;;;2.70;;
37451;SDS011;23314;51.114;6.900;2023-02-28T13:19:28;1.80;;;1.70;;
37451;SDS011;23314;51.114;6.900;2023-02-28T13:21:57;2.23;;;2.03;;
37451;SDS011;23314;51.114;6.900;2023-02-28T13:24:41;3.97;;;2.20;;
37451;SDS011;23314;51.114;6.900;2023-02-28T13:29:34;2.93;;;2.27;;
37451;SDS011;23314;51.114;6.900;2023-02-28T13:39:49;3.23;;;2.07;;
37451;SDS011;23314;51.114;6.900;2023-02-28T13:42:36;5.87;;;2.00;;
37451;SDS011;23314;51.114;6.900;2023-02-28T13:47:40;3.30;;;2.30;;
37451;SDS011;23314;51.114;6.900;2023-02-28T13:50:21;3.57;;;2.33;;
37451;SDS011;23314;51.114;6.900;2023-02-28T13:52:55;2.77;;;2.20;;
37451;SDS011;23314;51.114;6.900;2023-02-28T13:58:33;2.80;;;2.60;;
37451;SDS011;23314;51.114;6.900;2023-02-28T14:06:40;2.30;;;2.17;;
37451;SDS011;23314;51.114;6.900;2023-02-28T14:09:23;4.87;;;2.20;;
37451;SDS011;23314;51.114;6.900;2023-02-28T14:11:56;2.93;;;2.23;;
37451;SDS011;23314;51.114;6.900;2023-02-28T14:17:05;2.90;;;2.50;;
37451;SDS011;23314;51.114;6.900;2023-02-28T14:19:35;3.00;;;2.50;;
37451;SDS011;23314;51.114;6.900;2023-02-28T14:30:26;2.30;;;2.10;;
37451;SDS011;23314;51.114;6.900;2023-02-28T14:33:11;5.00;;;2.40;;
37451;SDS011;23314;51.114;6.900;2023-02-28T14:36:00;2.77;;;2.23;;
37451;SDS011;23314;51.114;6.900;2023-02-28T14:39:00;9.63;;;2.60;;
37451;SDS011;23314;51.114;6.900;2023-02-28T14:43:58;2.37;;;1.87;;
37451;SDS011;23314;51.114;6.900;2023-02-28T14:46:39;2.53;;;2.33;;
37451;SDS011;23314;51.114;6.900;2023-02-28T14:49:06;3.77;;;2.40;;
37451;SDS011;23314;51.114;6.900;2023-02-28T14:51:37;2.33;;;2.17;;
37451;SDS011;23314;51.114;6.900;2023-02-28T14:54:02;4.07;;;2.40;;
37451;SDS011;23314;51.114;6.900;2023-02-28T14:56:36;2.63;;;2.47;;
37451;SDS011;23314;51.114;6.900;2023-02-28T14:59:03;2.50;;;2.33;;
37451;SDS011;23314;51.114;6.900;2023-02-28T15:01:29;5.03;;;2.37;;
37451;SDS011;23314;51.114;6.900;2023-02-28T15:04:04;4.03;;;2.57;;
37451;SDS011;23314;51.114;6.900;2023-02-28T15:06:31;3.73;;;2.50;;
37451;SDS011;23314;51.114;6.900;2023-02-28T15:09:16;2.90;;;2.23;;
37451;SDS011;23314;51.114;6.900;2023-02-28T15:11:47;5.40;;;2.40;;
37451;SDS011;23314;51.114;6.900;2023-02-28T15:14:23;2.63;;;2.40;;
37451;SDS011;23314;51.114;6.900;2023-02-28T15:16:55;2.87;;;2.63;;
37451;SDS011;23314;51.114;6.900;2023-02-28T15:19:35;3.27;;;2.63;;
37451;SDS011;23314;51.114;6.900;2023-02-28T15:22:16;3.30;;;2.53;;
37451;SDS011;23314;51.114;6.900;2023-02-28T15:24:48;2.40;;;2.20;;
37451;SDS011;23314;51.114;6.900;2023-02-28T15:27:26;4.10;;;2.60;;
37451;SDS011;23314;51.114;6.900;2023-02-28T15:29:55;4.13;;;2.40;;
37451;SDS011;23314;51.114;6.900;2023-02-28T15:32:30;2.47;;;2.27;;
37451;SDS011;23314;51.114;6.900;2023-02-28T15:34:56;2.50;;;2.30;;
37451;SDS011;23314;51.114;6.900;2023-02-28T15:39:55;5.97;;;2.50;;
37451;SDS011;23314;51.114;6.900;2023-02-28T15:42:22;2.63;;;2.43;;
37451;SDS011;23314;51.114;6.900;2023-02-28T15:44:52;3.90;;;2.30;;
37451;SDS011;23314;51.114;6.900;2023-02-28T15:47:18;3.60;;;2.80;;
37451;SDS011;23314;51.114;6.900;2023-02-28T15:49:50;2.50;;;2.27;;
37451;SDS011;23314;51.114;6.900;2023-02-28T15:52:19;3.17;;;2.60;;
37451;SDS011;23314;51.114;6.900;2023-02-28T15:54:47;4.50;;;2.40;;
37451;SDS011;23314;51.114;6.900;2023-02-28T15:57:15;3.60;;;2.83;;
37451;SDS011;23314;51.114;6.900;2023-02-28T15:59:49;2.80;;;2.60;;
37451;SDS011;23314;51.114;6.900;2023-02-28T16:02:21;4.67;;;2.47;;
37451;SDS011;23314;51.114;6.900;2023-02-28T16:05:02;4.50;;;3.00;;
37451;SDS011;23314;51.114;6.900;2023-02-28T16:07:27;3.33;;;2.83;;
37451;SDS011;23314;51.114;6.900;2023-02-28T16:09:53;4.03;;;2.83;;
37451;SDS011;23314;51.114;6.900;2023-02-28T16:12:20;4.50;;;2.93;;
37451;SDS011;23314;51.114;6.900;2023-02-28T16:14:47;3.20;;;2.87;;
37451;SDS011;23314;51.114;6.900;2023-02-28T16:17:19;4.60;;;2.80;;
37451;SDS011;23314;51.114;6.900;2023-02-28T16:19:46;3.27;;;2.73;;
37451;SDS011;23314;51.114;6.900;2023-02-28T16:22:11;3.77;;;3.00;;
37451;SDS011;23314;51.114;6.900;2023-02-28T16:24:37;3.70;;;2.50;;
37451;SDS011;23314;51.114;6.900;2023-02-28T16:27:03;3.00;;;2.67;;
37451;SDS011;23314;51.114;6.900;2023-02-28T16:29:30;3.10;;;2.80;;
37451;SDS011;23314;51.114;6.900;2023-02-28T16:31:59;4.97;;;3.00;;
37451;SDS011;23314;51.114;6.900;2023-02-28T16:34:25;2.80;;;2.60;;
37451;SDS011;23314;51.114;6.900;2023-02-28T16:36:51;5.30;;;2.90;;
37451;SDS011;23314;51.114;6.900;2023-02-28T16:39:16;4.10;;;3.00;;
37451;SDS011;23314;51.114;6.900;2023-02-28T16:41:43;3.37;;;2.87;;
37451;SDS011;23314;51.114;6.900;2023-02-28T16:44:11;3.50;;;2.87;;
37451;SDS011;23314;51.114;6.900;2023-02-28T16:46:44;3.13;;;2.73;;
37451;SDS011;23314;51.114;6.900;2023-02-28T16:49:12;3.10;;;2.80;;
37451;SDS011;23314;51.114;6.900;2023-02-28T16:51:38;4.57;;;2.90;;
37451;SDS011;23314;51.114;6.900;2023-02-28T16:54:04;3.80;;;3.00;;
37451;SDS011;23314;51.114;6.900;2023-02-28T16:56:29;6.73;;;3.30;;
37451;SDS011;23314;51.114;6.900;2023-02-28T16:58:55;5.40;;;3.07;;
37451;SDS011;23314;51.114;6.900;2023-02-28T17:01:25;4.03;;;3.10;;
37451;SDS011;23314;51.114;6.900;2023-02-28T17:03:52;4.40;;;3.50;;
37451;SDS011;23314;51.114;6.900;2023-02-28T17:06:19;3.40;;;3.10;;
37451;SDS011;23314;51.114;6.900;2023-02-28T17:08:49;3.87;;;3.20;;
37451;SDS011;23314;51.114;6.900;2023-02-28T17:11:16;6.13;;;3.50;;
37451;SDS011;23314;51.114;6.900;2023-02-28T17:13:42;4.00;;;3.60;;
37451;SDS011;23314;51.114;6.900;2023-02-28T17:16:10;3.80;;;3.43;;